createdAt,value
2022-08-30T00:01:30.297Z,17.40
2022-08-30T00:05:33.417Z,17.30
2022-08-30T00:09:35.553Z,17.30
2022-08-30T00:13:39.176Z,17.30
2022-08-30T00:17:42.236Z,17.20
2022-08-30T00:21:44.222Z,17.20
2022-08-30T00:25:46.473Z,17.20
2022-08-30T00:29:48.422Z,17.20
2022-08-30T00:33:50.445Z,17.20
2022-08-30T00:37:52.590Z,17.20
2022-08-30T00:41:55.016Z,17.20
2022-08-30T00:45:58.263Z,17.20
2022-08-30T00:50:00.570Z,17.20
2022-08-30T00:54:04.211Z,17.20
2022-08-30T00:58:10.934Z,17.20
2022-08-30T01:02:13.547Z,17.10
2022-08-30T01:06:16.402Z,17.10
2022-08-30T01:10:19.036Z,17.00
2022-08-30T01:14:26.031Z,16.90
2022-08-30T01:18:29.148Z,16.80
2022-08-30T01:22:40.326Z,16.70
2022-08-30T01:26:43.455Z,16.70
2022-08-30T01:30:46.443Z,16.70
2022-08-30T01:34:49.027Z,16.60
2022-08-30T01:38:55.438Z,16.50
2022-08-30T01:42:57.392Z,16.40
2022-08-30T01:46:59.910Z,16.30
2022-08-30T01:51:02.460Z,16.30
2022-08-30T01:55:05.431Z,16.20
2022-08-30T01:59:07.624Z,16.20
2022-08-30T02:03:09.818Z,16.10
2022-08-30T02:07:11.846Z,16.00
2022-08-30T02:11:15.430Z,16.00
2022-08-30T02:15:18.337Z,15.90
2022-08-30T02:19:23.135Z,15.90
2022-08-30T02:23:28.317Z,15.90
2022-08-30T02:27:30.446Z,15.90
2022-08-30T02:31:32.943Z,15.90
2022-08-30T02:35:35.135Z,15.90
2022-08-30T02:39:37.391Z,16.00
2022-08-30T02:43:39.818Z,16.00
2022-08-30T02:47:46.779Z,16.00
2022-08-30T02:51:51.061Z,16.00
2022-08-30T02:55:53.135Z,16.00
2022-08-30T02:59:55.300Z,16.10
2022-08-30T03:03:57.500Z,16.10
2022-08-30T03:08:00.303Z,16.10
2022-08-30T03:12:02.888Z,16.00
2022-08-30T03:16:05.273Z,15.90
2022-08-30T03:20:09.184Z,15.90
2022-08-30T03:24:13.605Z,15.80
2022-08-30T03:28:16.117Z,15.80
2022-08-30T03:32:19.053Z,15.70
2022-08-30T03:36:21.714Z,15.70
2022-08-30T03:40:24.431Z,15.70
2022-08-30T03:44:28.687Z,15.70
2022-08-30T03:48:31.971Z,15.70
2022-08-30T03:52:34.081Z,15.70
2022-08-30T03:56:37.230Z,15.70
2022-08-30T04:00:39.437Z,15.70
2022-08-30T04:04:42.166Z,15.70
2022-08-30T04:08:46.117Z,15.70
2022-08-30T04:12:51.772Z,15.70
2022-08-30T04:16:54.182Z,15.80
2022-08-30T04:20:56.446Z,16.00
2022-08-30T04:24:58.412Z,16.10
2022-08-30T04:29:00.361Z,16.20
2022-08-30T04:33:02.693Z,16.20
2022-08-30T04:37:04.765Z,16.20
2022-08-30T04:41:19.240Z,16.20
2022-08-30T04:45:22.682Z,16.20
2022-08-30T04:49:25.568Z,16.40
2022-08-30T04:53:28.618Z,17.90
2022-08-30T04:57:30.972Z,19.50
2022-08-30T05:01:44.535Z,20.90
2022-08-30T05:05:51.904Z,22.40
2022-08-30T05:09:54.288Z,23.90
2022-08-30T05:13:58.659Z,25.40
2022-08-30T05:18:01.009Z,26.60
2022-08-30T05:22:04.018Z,27.70
2022-08-30T05:26:08.725Z,28.60
2022-08-30T05:30:14.833Z,29.10
2022-08-30T05:34:17.859Z,28.80
2022-08-30T05:38:20.041Z,27.50
2022-08-30T05:42:24.715Z,26.30
2022-08-30T05:46:31.569Z,25.30
2022-08-30T05:50:35.873Z,24.50
2022-08-30T05:54:40.325Z,23.80
2022-08-30T05:58:43.729Z,23.30
2022-08-30T06:02:46.084Z,22.80
2022-08-30T06:06:48.194Z,22.40
2022-08-30T06:10:50.502Z,21.80
2022-08-30T06:14:53.530Z,21.30
2022-08-30T06:18:57.989Z,21.00
2022-08-30T06:23:00.386Z,20.90
2022-08-30T06:27:03.009Z,20.70
2022-08-30T06:31:10.674Z,20.60
2022-08-30T06:35:12.730Z,20.50
2022-08-30T06:39:15.497Z,20.50
2022-08-30T06:43:17.760Z,20.60
2022-08-30T06:47:20.037Z,20.80
2022-08-30T06:51:25.244Z,21.00
2022-08-30T06:55:28.581Z,21.10
2022-08-30T06:59:32.536Z,21.10
2022-08-30T07:03:37.832Z,21.30
2022-08-30T07:07:40.189Z,21.30
2022-08-30T07:11:42.643Z,20.90
2022-08-30T07:15:45.529Z,20.80
2022-08-30T07:19:49.726Z,20.60
2022-08-30T07:23:53.710Z,20.60
2022-08-30T07:27:57.199Z,20.70
2022-08-30T07:32:00.188Z,20.90
2022-08-30T07:36:04.958Z,20.90
2022-08-30T07:40:07.789Z,20.90
2022-08-30T07:44:10.461Z,21.10
2022-08-30T07:48:13.343Z,21.40
2022-08-30T07:52:15.410Z,21.50
2022-08-30T07:56:17.654Z,21.40
2022-08-30T08:00:19.933Z,21.40
2022-08-30T08:04:22.171Z,21.60
2022-08-30T08:08:24.618Z,21.40
2022-08-30T08:12:26.982Z,21.50
2022-08-30T08:16:32.355Z,21.70
2022-08-30T08:20:35.878Z,22.10
2022-08-30T08:24:38.111Z,21.70
2022-08-30T08:28:40.392Z,21.60
2022-08-30T08:32:42.643Z,21.60
2022-08-30T08:36:45.712Z,21.40
2022-08-30T08:41:10.562Z,21.50
2022-08-30T08:45:19.443Z,21.30
2022-08-30T08:49:21.775Z,21.10
2022-08-30T08:53:46.277Z,21.30
2022-08-30T08:57:52.607Z,21.50
2022-08-30T09:02:00.961Z,21.80
2022-08-30T09:06:28.670Z,21.90
2022-08-30T09:10:49.474Z,21.90
2022-08-30T09:14:59.341Z,22.00
2022-08-30T09:19:02.664Z,21.90
2022-08-30T09:23:14.011Z,21.70
2022-08-30T09:32:10.148Z,22.00
2022-08-30T09:36:26.550Z,22.00
2022-08-30T09:40:53.826Z,22.00
2022-08-30T09:45:10.754Z,22.10
2022-08-30T09:49:46.333Z,22.10
2022-08-30T09:54:17.520Z,22.10
2022-08-30T09:58:50.444Z,21.70
2022-08-30T10:02:58.426Z,21.50
2022-08-30T10:07:15.010Z,21.40
2022-08-30T10:11:48.698Z,21.50
2022-08-30T10:16:09.116Z,21.40
2022-08-30T10:20:32.833Z,21.60
2022-08-30T10:24:43.969Z,21.50
2022-08-30T10:28:55.922Z,21.40
2022-08-30T10:33:17.412Z,21.30
2022-08-30T10:37:32.761Z,21.50
2022-08-30T10:41:39.804Z,21.80
2022-08-30T10:45:47.305Z,22.20
2022-08-30T10:49:53.645Z,22.20
2022-08-30T10:54:04.754Z,22.00
2022-08-30T10:58:07.563Z,21.70
2022-08-30T11:02:09.458Z,21.50
2022-08-30T11:06:26.929Z,21.30
2022-08-30T11:10:57.015Z,21.20
2022-08-30T11:15:01.646Z,21.40
2022-08-30T11:19:13.901Z,21.80
2022-08-30T11:23:19.189Z,22.10
2022-08-30T11:27:43.492Z,22.60
2022-08-30T11:31:46.779Z,23.00
2022-08-30T11:35:52.715Z,22.90
2022-08-30T11:40:01.915Z,23.00
2022-08-30T11:44:21.846Z,23.30
2022-08-30T11:48:51.353Z,23.80
2022-08-30T11:53:21.751Z,24.20
2022-08-30T11:57:45.856Z,24.40
2022-08-30T12:01:52.001Z,24.50
2022-08-30T12:05:59.732Z,24.30
2022-08-30T12:10:04.116Z,24.50
2022-08-30T12:14:09.379Z,24.40
2022-08-30T12:18:30.583Z,24.40
2022-08-30T12:22:37.979Z,24.60
2022-08-30T12:26:44.063Z,24.60
2022-08-30T12:30:46.936Z,24.10
2022-08-30T12:34:54.777Z,24.10
2022-08-30T12:39:10.661Z,24.40
2022-08-30T12:43:40.424Z,24.70
2022-08-30T12:47:50.650Z,24.40
2022-08-30T12:51:53.782Z,23.90
2022-08-30T12:55:59.512Z,23.50
2022-08-30T13:00:05.984Z,23.10
2022-08-30T13:04:14.598Z,22.90
2022-08-30T13:08:22.511Z,22.90
2022-08-30T13:12:27.852Z,23.00
2022-08-30T13:16:40.302Z,23.00
2022-08-30T13:20:48.155Z,23.30
2022-08-30T13:24:52.265Z,23.60
2022-08-30T13:29:00.766Z,23.50
2022-08-30T13:33:03.035Z,23.80
2022-08-30T13:37:05.437Z,24.10
2022-08-30T13:41:08.066Z,24.20
2022-08-30T13:49:43.424Z,24.50
2022-08-30T13:53:54.086Z,24.20
2022-08-30T13:57:57.610Z,24.20
2022-08-30T14:02:11.444Z,24.40
2022-08-30T14:06:32.131Z,24.70
2022-08-30T14:10:46.624Z,24.50
2022-08-30T14:14:49.894Z,24.20
2022-08-30T14:18:56.181Z,23.90
2022-08-30T14:22:58.721Z,24.00
2022-08-30T14:27:01.184Z,24.00
2022-08-30T14:31:03.439Z,23.90
2022-08-30T14:35:06.118Z,24.10
2022-08-30T14:39:11.914Z,24.20
2022-08-30T14:43:14.594Z,24.10
2022-08-30T14:47:16.881Z,24.00
2022-08-30T14:51:21.458Z,23.80
2022-08-30T14:55:23.646Z,23.90
2022-08-30T14:59:26.889Z,24.20
2022-08-30T15:03:29.527Z,24.30
2022-08-30T15:07:31.995Z,24.20
2022-08-30T15:11:34.955Z,24.00
2022-08-30T15:15:37.142Z,24.00
2022-08-30T15:19:39.750Z,24.00
2022-08-30T15:23:42.001Z,24.30
2022-08-30T15:27:44.085Z,24.40
2022-08-30T15:31:49.901Z,24.60
2022-08-30T15:35:52.709Z,24.70
2022-08-30T15:39:55.633Z,24.70
2022-08-30T15:43:58.984Z,24.40
2022-08-30T15:48:01.688Z,24.10
2022-08-30T15:52:05.794Z,23.70
2022-08-30T15:56:10.998Z,23.60
2022-08-30T16:00:14.209Z,23.50
2022-08-30T16:04:18.634Z,23.50
2022-08-30T16:08:20.950Z,23.60
2022-08-30T16:12:23.391Z,23.70
2022-08-30T16:16:26.312Z,23.60
2022-08-30T16:20:28.497Z,23.40
2022-08-30T16:24:30.895Z,23.00
2022-08-30T16:28:33.366Z,22.70
2022-08-30T16:32:35.512Z,22.60
2022-08-30T16:36:39.714Z,22.40
2022-08-30T16:40:41.818Z,22.30
2022-08-30T16:44:46.316Z,22.20
2022-08-30T16:48:49.062Z,22.10
2022-08-30T16:52:51.511Z,21.90
2022-08-30T16:56:55.814Z,21.70
2022-08-30T17:00:59.854Z,21.60
2022-08-30T17:05:05.920Z,21.50
2022-08-30T17:09:09.878Z,21.40
2022-08-30T17:13:12.138Z,21.40
2022-08-30T17:17:14.640Z,21.30
2022-08-30T17:21:18.978Z,21.20
2022-08-30T17:25:21.366Z,21.10
2022-08-30T17:29:24.348Z,21.00
2022-08-30T17:33:27.278Z,20.90
2022-08-30T17:37:29.619Z,20.80
2022-08-30T17:41:32.013Z,20.70
2022-08-30T17:45:34.181Z,20.50
2022-08-30T17:49:38.833Z,20.50
2022-08-30T17:53:41.323Z,20.30
2022-08-30T17:57:43.598Z,20.20
2022-08-30T18:01:45.914Z,20.10
2022-08-30T18:05:48.878Z,20.00
2022-08-30T18:09:53.335Z,19.90
2022-08-30T18:13:56.057Z,19.80
2022-08-30T18:17:58.724Z,19.60
2022-08-30T18:22:03.351Z,19.40
2022-08-30T18:26:05.730Z,19.20
2022-08-30T18:30:11.680Z,19.20
2022-08-30T18:34:13.946Z,19.10
2022-08-30T18:38:17.552Z,19.10
2022-08-30T18:42:20.478Z,19.00
2022-08-30T18:46:23.072Z,19.00
2022-08-30T18:50:29.313Z,19.00
2022-08-30T18:54:31.297Z,19.00
2022-08-30T18:58:34.171Z,19.00
2022-08-30T19:02:36.790Z,18.90
2022-08-30T19:06:43.162Z,18.90
2022-08-30T19:10:45.246Z,18.80
2022-08-30T19:14:47.488Z,18.80
2022-08-30T19:18:51.108Z,18.70
2022-08-30T19:23:09.499Z,18.70
2022-08-30T19:27:37.299Z,18.60
2022-08-30T19:31:44.200Z,18.60
2022-08-30T19:35:50.974Z,18.50
2022-08-30T19:39:53.609Z,18.40
2022-08-30T19:43:56.246Z,18.30
2022-08-30T19:47:58.713Z,18.20
2022-08-30T19:52:01.000Z,18.20
2022-08-30T19:56:03.493Z,18.00
2022-08-30T20:00:11.101Z,18.00
2022-08-30T20:04:14.588Z,18.00
2022-08-30T20:08:16.831Z,17.90
2022-08-30T20:12:20.120Z,17.90
2022-08-30T20:16:28.378Z,17.80
2022-08-30T20:20:39.781Z,17.80
2022-08-30T20:24:43.907Z,17.80
2022-08-30T20:28:46.372Z,17.80
2022-08-30T20:32:48.727Z,17.80
2022-08-30T20:36:52.174Z,17.70
2022-08-30T20:40:59.086Z,17.70
2022-08-30T20:45:01.362Z,17.70
2022-08-30T20:49:04.189Z,17.60
2022-08-30T20:53:06.860Z,17.60
2022-08-30T20:57:09.100Z,17.50
2022-08-30T21:01:12.225Z,17.50
2022-08-30T21:05:15.672Z,17.50
2022-08-30T21:09:17.706Z,17.50
2022-08-30T21:13:21.909Z,17.50
2022-08-30T21:17:24.307Z,17.50
2022-08-30T21:21:27.989Z,17.50
2022-08-30T21:25:33.302Z,17.50
2022-08-30T21:29:35.449Z,17.50
2022-08-30T21:33:39.114Z,17.50
2022-08-30T21:37:41.298Z,17.40
2022-08-30T21:41:43.605Z,17.40
2022-08-30T21:45:45.806Z,17.30
2022-08-30T21:49:47.995Z,17.20
2022-08-30T21:53:50.203Z,17.20
2022-08-30T21:57:54.373Z,17.10
2022-08-30T22:01:57.435Z,17.00
2022-08-30T22:05:59.601Z,16.90
2022-08-30T22:10:01.689Z,16.80
2022-08-30T22:14:04.892Z,16.80
2022-08-30T22:18:07.130Z,16.70
2022-08-30T22:22:09.419Z,16.60
2022-08-30T22:26:13.669Z,16.60
2022-08-30T22:30:17.807Z,16.50
2022-08-30T22:34:19.986Z,16.50
2022-08-30T22:38:22.909Z,16.40
2022-08-30T22:42:25.526Z,16.40
2022-08-30T22:46:33.820Z,16.30
2022-08-30T22:50:38.529Z,16.30
2022-08-30T22:54:40.650Z,16.20
2022-08-30T22:58:44.100Z,16.20
2022-08-30T23:02:50.851Z,16.10
2022-08-30T23:06:53.225Z,16.00
2022-08-30T23:10:58.238Z,16.00
2022-08-30T23:15:00.148Z,15.90
2022-08-30T23:19:02.438Z,16.00
2022-08-30T23:23:04.324Z,16.00
2022-08-30T23:27:27.682Z,16.00
2022-08-30T23:31:48.454Z,15.80
2022-08-30T23:36:10.595Z,15.60
2022-08-30T23:40:32.100Z,15.60
2022-08-30T23:44:53.553Z,15.50
2022-08-30T23:49:14.628Z,15.50
2022-08-30T23:53:35.567Z,15.40
2022-08-30T23:57:56.146Z,15.30
